Time;durP1;ratioP1;P1;durP2;ratioP2;P2;SDS_P1;SDS_P2;PMS_P1;PMS_P2;Temp;Humidity;BMP_temperature;BMP_pressure;BME280_temperature;BME280_humidity;BME280_pressure;Samples;Min_cycle;Max_cycle;Signal;HPM_P1;HPM_P2
2023/06/22 00:04:57;;;;;;;17.20;3.00;;;;;;;26.27;44.65;102116.38;21063082;28;20048;-59
2023/06/22 00:14:59;;;;;;;10.85;2.17;;;;;;;26.18;44.41;102095.66;21074660;28;20101;-59
2023/06/22 00:25:00;;;;;;;8.10;1.92;;;;;;;26.31;44.34;102106.25;21089957;28;20377;-59
2023/06/22 00:35:05;;;;;;;6.82;1.70;;;;;;;26.28;44.54;102089.97;21089308;28;20462;-60
2023/06/22 00:45:07;;;;;;;4.93;1.60;;;;;;;26.17;44.38;102078.00;21088928;28;20062;-58
2023/06/22 00:55:09;;;;;;;4.03;1.63;;;;;;;26.22;44.64;102074.31;21087541;28;20048;-61
2023/06/22 01:05:14;;;;;;;5.53;1.73;;;;;;;26.22;44.46;102072.34;21087631;28;20418;-59
2023/06/22 01:15:24;;;;;;;5.45;1.75;;;;;;;26.20;44.47;102070.94;21086674;28;20475;-61
2023/06/22 01:25:43;;;;;;;4.93;1.40;;;;;;;26.15;44.55;102074.63;21085427;28;20047;-59
2023/06/22 01:35:45;;;;;;;7.00;2.00;;;;;;;26.16;44.59;102070.72;21084691;28;20052;-59
2023/06/22 01:45:46;;;;;;;8.13;1.92;;;;;;;26.18;44.75;102076.84;21082771;28;20110;-59
2023/06/22 01:55:49;;;;;;;7.72;2.40;;;;;;;26.18;44.46;102064.78;20999539;28;20117;-60
2023/06/22 02:05:55;;;;;;;3.83;1.58;;;;;;;26.00;44.40;102033.47;20998697;28;20053;-59
2023/06/22 02:15:57;;;;;;;18.15;2.90;;;;;;;26.11;44.72;102062.28;21071718;28;20391;-57
2023/06/22 02:25:58;;;;;;;13.75;2.22;;;;;;;26.13;44.61;102059.22;21080507;28;20093;-59
2023/06/22 02:35:59;;;;;;;13.00;2.58;;;;;;;26.09;44.44;102048.56;21077127;28;20043;-57
2023/06/22 02:46:01;;;;;;;5.50;2.17;;;;;;;26.09;44.25;102040.16;21071942;28;20040;-57
2023/06/22 02:56:05;;;;;;;8.40;2.08;;;;;;;26.11;43.93;102039.84;21076159;28;20040;-57
2023/06/22 03:06:06;;;;;;;8.57;1.98;;;;;;;26.02;44.10;102021.97;21073514;28;20090;-56
2023/06/22 03:16:08;;;;;;;7.68;2.10;;;;;;;26.06;44.25;102039.88;21077076;28;20051;-58
2023/06/22 03:26:10;;;;;;;5.32;2.10;;;;;;;26.01;44.03;102045.53;21074613;28;20044;-56
2023/06/22 03:36:12;;;;;;;9.85;1.77;;;;;;;26.04;44.10;102039.34;21075553;28;20048;-58
2023/06/22 03:46:13;;;;;;;6.70;1.77;;;;;;;26.00;43.93;102019.44;21074806;28;20032;-58
2023/06/22 03:56:20;;;;;;;4.82;1.90;;;;;;;25.85;44.01;101983.94;21086698;28;20486;-58
2023/06/22 04:06:22;;;;;;;6.77;1.90;;;;;;;26.00;43.97;101998.97;21091357;28;20093;-58
2023/06/22 04:16:23;;;;;;;5.43;1.92;;;;;;;26.00;44.04;101974.56;21091019;28;20044;-58
2023/06/22 04:26:25;;;;;;;6.90;1.73;;;;;;;25.91;44.12;101955.84;21092103;28;20074;-57
2023/06/22 04:36:30;;;;;;;6.72;1.98;;;;;;;25.96;44.18;101951.03;21089679;28;20036;-58
2023/06/22 04:46:33;;;;;;;5.90;1.77;;;;;;;25.92;44.22;101937.91;21087998;28;20479;-57
2023/06/22 04:56:35;;;;;;;3.53;1.63;;;;;;;25.91;44.45;101933.44;21087722;28;20051;-56
2023/06/22 05:06:36;;;;;;;4.50;2.10;;;;;;;25.88;44.60;101919.97;21086732;28;20047;-58
2023/06/22 05:16:38;;;;;;;5.45;2.28;;;;;;;25.85;44.60;101925.06;21086659;28;20441;-57
2023/06/22 05:26:43;;;;;;;7.38;2.00;;;;;;;25.81;44.88;101918.34;21085600;28;20097;-58
2023/06/22 05:36:44;;;;;;;6.40;2.55;;;;;;;25.82;44.88;101917.22;21085606;28;20040;-57
2023/06/22 05:46:47;;;;;;;5.97;1.98;;;;;;;25.77;44.80;101900.44;21084560;28;20051;-59
2023/06/22 05:56:49;;;;;;;4.65;2.45;;;;;;;25.78;45.08;101907.69;21082919;28;20040;-58
2023/06/22 06:06:50;;;;;;;5.80;2.30;;;;;;;25.79;45.10;101908.53;21085754;28;20040;-57
2023/06/22 06:16:51;;;;;;;5.95;1.95;;;;;;;25.75;45.16;101899.88;21080474;28;20048;-58
2023/06/22 06:26:55;;;;;;;4.75;1.90;;;;;;;25.73;45.11;101892.84;21080956;28;20078;-58
2023/06/22 06:36:57;;;;;;;4.15;1.95;;;;;;;25.71;44.93;101883.91;21079660;28;20052;-58
2023/06/22 06:46:58;;;;;;;5.80;2.40;;;;;;;25.69;45.15;101866.53;21079705;28;20065;-56
2023/06/22 06:57:00;;;;;;;3.58;2.13;;;;;;;25.65;45.20;101869.06;21079130;28;20449;-56
2023/06/22 07:07:02;;;;;;;5.03;2.35;;;;;;;25.56;45.20;101854.00;21077406;28;20106;-58
2023/06/22 07:17:06;;;;;;;6.25;2.85;;;;;;;25.62;45.44;101860.44;21077328;28;20101;-57
2023/06/22 07:27:07;;;;;;;5.63;2.22;;;;;;;25.62;45.56;101874.44;21077092;28;20078;-57
2023/06/22 07:37:09;;;;;;;3.63;1.85;;;;;;;25.57;45.50;101872.50;21077590;28;20032;-55
2023/06/22 07:47:10;;;;;;;4.53;1.85;;;;;;;25.55;45.33;101869.16;21077170;28;20040;-58
2023/06/22 07:57:12;;;;;;;4.47;2.25;;;;;;;25.43;45.41;101858.31;21074930;28;20384;-57
2023/06/22 08:07:18;;;;;;;2.63;1.75;;;;;;;25.51;45.12;101870.84;21075697;28;20172;-58
2023/06/22 08:17:19;;;;;;;3.17;1.80;;;;;;;25.51;45.00;101862.44;21074622;28;20036;-57
2023/06/22 08:27:23;;;;;;;2.33;1.65;;;;;;;25.47;45.02;101864.97;21075280;28;20040;-57
2023/06/22 08:37:30;;;;;;;1.92;1.50;;;;;;;25.47;44.84;101864.16;21073101;28;20044;-58
2023/06/22 08:47:31;;;;;;;2.93;2.03;;;;;;;25.46;44.59;101870.88;21088829;28;20097;-58
2023/06/22 08:57:33;;;;;;;2.97;1.60;;;;;;;25.42;44.21;101876.22;21088011;28;20101;-57
2023/06/22 09:07:34;;;;;;;2.22;1.80;;;;;;;25.41;44.72;101884.94;21085556;28;20404;-58
2023/06/22 09:17:36;;;;;;;3.50;2.03;;;;;;;25.41;44.48;101896.13;21086560;28;20044;-57
2023/06/22 09:27:37;;;;;;;3.72;1.67;;;;;;;25.38;44.49;101891.09;21085465;28;20032;-56
2023/06/22 09:37:40;;;;;;;2.38;1.60;;;;;;;25.36;44.43;101905.41;21084445;28;20048;-56
2023/06/22 09:47:42;;;;;;;1.92;1.17;;;;;;;25.33;44.45;101889.16;21083010;28;20040;-57
2023/06/22 09:57:43;;;;;;;6.25;1.67;;;;;;;25.27;44.35;101891.16;21082676;28;20108;-56
2023/06/22 10:07:47;;;;;;;2.13;1.70;;;;;;;25.24;44.42;101885.28;21081960;28;20097;-57
2023/06/22 10:17:49;;;;;;;2.65;1.25;;;;;;;25.25;44.61;101899.03;21082135;28;20044;-58
2023/06/22 10:27:55;;;;;;;1.60;1.17;;;;;;;25.22;44.51;101905.19;21080378;28;20047;-58
2023/06/22 10:37:59;;;;;;;2.22;1.10;;;;;;;25.20;44.78;101901.00;21078221;28;20073;-58
2023/06/22 10:48:01;;;;;;;3.10;1.50;;;;;;;25.19;44.73;101911.38;21079207;28;20113;-58
2023/06/22 10:58:02;;;;;;;2.30;1.27;;;;;;;25.14;44.78;101914.19;21077494;28;20036;-56
2023/06/22 11:08:04;;;;;;;1.73;1.00;;;;;;;25.16;44.78;101925.13;21076899;28;20117;-57
2023/06/22 11:18:06;;;;;;;1.70;1.20;;;;;;;25.13;44.88;101928.50;21073651;28;20168;-56
2023/06/22 11:28:08;;;;;;;4.78;1.17;;;;;;;25.12;45.13;101938.88;20992972;28;20545;-58
2023/06/22 11:38:09;;;;;;;4.18;1.52;;;;;;;25.13;45.38;101937.72;20992806;28;20545;-58
2023/06/22 11:48:11;;;;;;;2.30;1.10;;;;;;;25.08;45.34;101944.19;20992439;28;20444;-58
2023/06/22 11:58:12;;;;;;;3.92;1.00;;;;;;;25.08;45.70;101944.19;20991736;28;20461;-56
2023/06/22 12:08:14;;;;;;;5.22;1.38;;;;;;;25.08;45.38;101943.34;20991650;28;20040;-59
2023/06/22 12:18:15;;;;;;;5.10;1.63;;;;;;;25.08;45.31;101960.16;21001647;28;20377;-58
2023/06/22 12:28:16;;;;;;;2.67;1.10;;;;;;;25.00;45.51;101963.50;21035666;28;20387;-58
2023/06/22 12:38:26;;;;;;;5.55;1.40;;;;;;;25.05;45.65;101980.28;21069333;28;20074;-57
2023/06/22 12:48:28;;;;;;;4.03;1.20;;;;;;;24.81;45.51;101930.50;21083117;28;20028;-59
2023/06/22 12:58:29;;;;;;;2.80;1.15;;;;;;;25.03;45.62;101957.34;21082568;28;20040;-57
2023/06/22 13:08:30;;;;;;;3.03;1.10;;;;;;;25.00;45.44;101953.13;21084256;28;20090;-58
2023/06/22 13:18:33;;;;;;;1.83;1.20;;;;;;;24.99;45.39;101951.47;21081320;28;20048;-57
2023/06/22 13:28:37;;;;;;;3.60;1.17;;;;;;;24.99;45.33;101951.47;21070507;28;20047;-58
2023/06/22 13:38:38;;;;;;;2.72;1.30;;;;;;;24.98;45.57;101946.16;21080955;28;20437;-59
2023/06/22 13:48:40;;;;;;;4.82;1.52;;;;;;;25.01;45.53;101976.38;21071040;28;20445;-59
2023/06/22 13:58:42;;;;;;;14.40;2.22;;;;;;;24.97;46.05;101958.47;21081927;28;20515;-57
2023/06/22 14:08:44;;;;;;;7.55;1.73;;;;;;;24.98;45.76;101968.56;21082541;28;20040;-59
2023/06/22 14:18:47;;;;;;;13.50;2.40;;;;;;;24.98;45.58;101965.75;21081009;28;20384;-58
2023/06/22 14:28:51;;;;;;;8.63;2.10;;;;;;;24.96;45.57;101968.00;21080921;28;20093;-57
2023/06/22 14:38:53;;;;;;;22.52;2.35;;;;;;;24.92;45.88;101950.06;21068060;28;20052;-57
2023/06/22 14:48:54;;;;;;;12.43;2.03;;;;;;;24.97;46.05;101958.47;21071783;28;20028;-57
2023/06/22 14:58:55;;;;;;;13.15;2.70;;;;;;;24.96;46.24;101991.22;21078383;28;20048;-58
2023/06/22 15:08:57;;;;;;;12.63;2.60;;;;;;;24.98;46.35;101988.16;21075457;28;20058;-59
2023/06/22 15:19:00;;;;;;;10.93;2.40;;;;;;;24.98;46.34;101979.75;21069098;28;20138;-59
2023/06/22 15:29:04;;;;;;;26.25;3.40;;;;;;;24.92;46.19;101992.91;21076385;28;20032;-60
2023/06/22 15:39:05;;;;;;;18.33;3.08;;;;;;;24.94;46.38;101992.66;21074715;28;20043;-59
2023/06/22 15:49:07;;;;;;;25.98;4.00;;;;;;;24.96;46.39;101994.03;21081022;28;20044;-59
2023/06/22 15:59:11;;;;;;;21.48;3.40;;;;;;;24.94;46.79;101984.25;21091334;28;20043;-59
2023/06/22 16:09:15;;;;;;;24.95;4.00;;;;;;;24.97;46.70;101992.06;21092181;28;20457;-58
2023/06/22 16:19:17;;;;;;;10.18;2.42;;;;;;;24.92;46.87;101983.69;21089658;28;20101;-58
2023/06/22 16:29:18;;;;;;;12.80;2.85;;;;;;;24.96;47.13;101985.63;21090469;28;20040;-58
2023/06/22 16:39:20;;;;;;;37.17;3.63;;;;;;;24.91;47.33;101982.00;21056020;28;20109;-58
2023/06/22 16:49:21;;;;;;;11.73;2.55;;;;;;;24.90;47.70;101963.53;21072265;28;20044;-58
2023/06/22 16:59:25;;;;;;;15.25;3.15;;;;;;;24.96;47.48;101968.00;21079860;28;20037;-58
2023/06/22 17:09:30;;;;;;;6.18;1.98;;;;;;;24.87;48.04;101919.28;21060297;28;20040;-59
2023/06/22 17:19:31;;;;;;;5.65;2.10;;;;;;;24.94;47.73;101922.66;21084659;28;20047;-58
2023/06/22 17:29:34;;;;;;;6.88;2.47;;;;;;;24.94;48.32;101914.25;21084736;28;20040;-57
2023/06/22 17:39:36;;;;;;;5.10;2.53;;;;;;;24.83;48.41;101897.50;21083109;28;20048;-58
2023/06/22 17:49:38;;;;;;;10.50;2.85;;;;;;;24.91;48.10;101904.44;21077627;28;20445;-58
2023/06/22 17:59:40;;;;;;;19.25;3.58;;;;;;;24.76;47.96;101865.31;21030706;28;20479;-59
2023/06/22 18:09:41;;;;;;;14.43;3.65;;;;;;;24.88;48.02;101887.38;21061104;28;20029;-58
2023/06/22 18:19:44;;;;;;;21.33;3.95;;;;;;;24.89;48.36;101870.31;21070568;28;20070;-58
2023/06/22 18:29:49;;;;;;;16.70;3.55;;;;;;;24.95;48.40;101866.34;21044959;28;20040;-59
2023/06/22 18:39:54;;;;;;;14.52;3.03;;;;;;;24.73;48.42;101840.69;21067825;28;20433;-59
2023/06/22 18:50:07;;;;;;;15.70;3.95;;;;;;;24.89;48.55;101849.88;21075913;28;20024;-59
2023/06/22 19:00:10;;;;;;;16.88;4.03;;;;;;;24.91;48.58;101859.66;21071939;28;20036;-59
2023/06/22 19:10:44;;;;;;;24.80;4.25;;;;;;;24.87;48.94;101849.31;21073362;28;20131;-58
2023/06/22 19:21:08;;;;;;;20.38;3.80;;;;;;;24.87;48.60;101850.13;21056540;28;20044;-58
2023/06/22 19:31:10;;;;;;;19.05;4.50;;;;;;;24.95;48.57;101831.94;21055617;28;20073;-59
2023/06/22 19:41:11;;;;;;;13.80;3.50;;;;;;;24.93;48.79;101835.03;21072634;28;20048;-58
2023/06/22 19:51:16;;;;;;;16.10;3.17;;;;;;;24.93;48.81;101834.19;21071535;28;20429;-59
2023/06/22 20:01:17;;;;;;;13.15;5.78;;;;;;;24.91;49.03;101822.41;21071747;28;20044;-58
2023/06/22 20:11:29;;;;;;;34.10;7.28;;;;;;;24.71;49.39;101793.41;21021994;28;20044;-58
2023/06/22 20:21:32;;;;;;;23.98;5.38;;;;;;;24.91;49.17;101814.03;21058811;28;20086;-57
2023/06/22 20:31:35;;;;;;;13.18;3.97;;;;;;;24.94;49.20;101819.06;21061450;28;20093;-58
2023/06/22 20:41:36;;;;;;;18.10;4.28;;;;;;;24.94;49.28;101808.69;21087260;28;20044;-58
2023/06/22 20:51:40;;;;;;;21.13;4.25;;;;;;;24.94;49.21;101783.50;21087304;28;20047;-59
2023/06/22 21:01:46;;;;;;;56.58;7.00;;;;;;;24.97;49.23;101784.84;21084663;28;20048;-59
2023/06/22 21:11:47;;;;;;;43.92;6.63;;;;;;;24.93;49.68;101783.78;21072465;28;20098;-59
2023/06/22 21:21:51;;;;;;;35.80;6.15;;;;;;;24.93;49.39;101767.00;21085901;28;20044;-58
2023/06/22 21:31:52;;;;;;;42.22;5.78;;;;;;;24.98;49.79;101778.16;21070620;28;20106;-59
2023/06/22 21:41:54;;;;;;;18.13;3.75;;;;;;;25.01;49.68;101791.56;21079624;28;20052;-59
2023/06/22 21:51:55;;;;;;;16.40;4.10;;;;;;;24.99;49.42;101769.47;21035013;28;20454;-59
2023/06/22 22:01:56;;;;;;;11.35;3.35;;;;;;;24.97;49.66;101771.72;21073621;28;20036;-59
2023/06/22 22:12:01;;;;;;;12.50;3.75;;;;;;;24.99;49.71;101760.22;21069527;28;20112;-59
2023/06/22 22:22:03;;;;;;;23.23;4.35;;;;;;;24.94;49.67;101763.06;21016061;28;20052;-58
2023/06/22 22:32:05;;;;;;;468.80;51.40;;;;;;;24.97;49.97;101757.72;21080754;28;20082;-60
2023/06/22 22:42:08;;;;;;;440.02;51.28;;;;;;;24.99;49.83;101751.81;21079486;28;20121;-58
2023/06/22 22:52:09;;;;;;;361.95;44.60;;;;;;;25.04;49.96;101757.38;21078804;28;20032;-59
2023/06/22 23:02:10;;;;;;;300.30;39.22;;;;;;;25.05;49.75;101764.66;21074940;28;20048;-59
2023/06/22 23:12:12;;;;;;;257.95;31.85;;;;;;;25.02;49.53;101751.25;21075610;28;20047;-58
2023/06/22 23:22:13;;;;;;;200.65;28.63;;;;;;;25.06;49.51;101756.00;21076282;28;20044;-59
2023/06/22 23:32:17;;;;;;;189.95;27.63;;;;;;;25.08;49.34;101752.91;21076623;28;20044;-58
2023/06/22 23:42:19;;;;;;;132.70;20.65;;;;;;;25.05;49.43;101745.06;21075919;28;20502;-57
2023/06/22 23:52:20;;;;;;;123.90;20.13;;;;;;;25.04;49.46;101746.19;21075793;28;20020;-57
